Time;durP1;ratioP1;P1;durP2;ratioP2;P2;SDS_P1;SDS_P2;PMS_P1;PMS_P2;Temp;Humidity;BMP_temperature;BMP_pressure;BME280_temperature;BME280_humidity;BME280_pressure;Samples;Min_cycle;Max_cycle;Signal;HPM_P1;HPM_P2
2023/07/10 00:00:52;;;;;;;1.75;1.17;;;18.90;99.90;;;;;;4831076;29;20440;-87
2023/07/10 00:03:19;;;;;;;1.10;1.00;;;19.00;99.90;;;;;;4798795;29;20050;-87
2023/07/10 00:05:44;;;;;;;1.55;1.45;;;18.90;99.90;;;;;;4821790;29;20058;-87
2023/07/10 00:08:10;;;;;;;1.08;1.08;;;18.90;99.90;;;;;;4815113;29;20114;-87
2023/07/10 00:10:36;;;;;;;1.15;1.00;;;18.90;99.90;;;;;;4819012;29;20077;-91
2023/07/10 00:13:02;;;;;;;1.23;1.13;;;18.90;99.90;;;;;;4819599;29;20051;-87
2023/07/10 00:15:29;;;;;;;1.30;1.20;;;18.90;99.90;;;;;;4818692;29;20056;-87
2023/07/10 00:17:55;;;;;;;1.63;1.33;;;18.90;99.90;;;;;;4804404;29;20050;-87
2023/07/10 00:20:26;;;;;;;1.80;1.65;;;18.90;99.90;;;;;;4817496;29;20042;-87
2023/07/10 00:22:52;;;;;;;1.33;1.23;;;18.90;99.90;;;;;;4827968;29;20516;-87
2023/07/10 00:25:19;;;;;;;1.45;1.20;;;18.90;99.90;;;;;;4827935;29;20407;-87
2023/07/10 00:27:47;;;;;;;1.58;1.27;;;18.90;99.90;;;;;;4802262;29;20042;-87
2023/07/10 00:30:15;;;;;;;1.40;1.30;;;18.90;99.90;;;;;;4818290;29;20133;-87
2023/07/10 00:32:42;;;;;;;1.30;1.20;;;18.90;99.90;;;;;;4828153;29;20051;-88
2023/07/10 00:35:08;;;;;;;1.55;1.30;;;18.90;99.90;;;;;;4836506;29;20061;-87
2023/07/10 00:37:34;;;;;;;1.80;1.38;;;18.90;99.90;;;;;;4840910;29;20050;-86
2023/07/10 00:40:00;;;;;;;1.60;1.27;;;18.90;99.90;;;;;;4824822;29;20124;-86
2023/07/10 00:42:26;;;;;;;2.28;1.30;;;18.90;99.90;;;;;;4840729;29;20054;-86
2023/07/10 00:44:57;;;;;;;;;;;18.80;99.90;;;;;;4814402;29;20043;-87
2023/07/10 00:47:36;;;;;;;1.27;1.15;;;18.80;99.90;;;;;;4807809;29;19925;-87
2023/07/10 00:50:10;;;;;;;2.60;1.83;;;18.80;99.90;;;;;;4822459;29;20065;-87
2023/07/10 00:52:41;;;;;;;1.55;1.45;;;18.80;99.90;;;;;;4822839;29;20050;-87
2023/07/10 00:55:17;;;;;;;1.48;1.30;;;18.80;99.90;;;;;;4807495;29;20050;-87
2023/07/10 00:57:47;;;;;;;0.98;0.98;;;18.80;99.90;;;;;;4823081;29;20070;-91
2023/07/10 01:00:19;;;;;;;1.98;1.33;;;18.80;99.90;;;;;;4807454;29;20058;-87
2023/07/10 01:02:45;;;;;;;1.30;0.80;;;18.80;99.90;;;;;;4823145;29;20058;-88
2023/07/10 01:05:12;;;;;;;2.65;1.50;;;18.80;99.90;;;;;;4807176;29;20050;-87
2023/07/10 01:07:57;;;;;;;1.38;1.27;;;18.80;99.90;;;;;;4829141;29;20046;-87
2023/07/10 01:10:22;;;;;;;1.58;1.48;;;18.80;99.90;;;;;;4817053;29;20087;-87
2023/07/10 01:12:48;;;;;;;1.42;1.33;;;18.80;99.90;;;;;;4829263;29;20506;-87
2023/07/10 01:15:17;;;;;;;1.15;1.05;;;18.80;99.90;;;;;;4802018;29;20062;-87
2023/07/10 01:17:46;;;;;;;1.80;1.48;;;18.80;99.90;;;;;;4828763;29;20056;-90
2023/07/10 01:20:32;;;;;;;1.75;1.60;;;18.80;99.90;;;;;;4812464;29;20050;-87
2023/07/10 01:22:59;;;;;;;1.90;1.50;;;18.80;99.90;;;;;;4828368;29;20198;-87
2023/07/10 01:25:28;;;;;;;1.33;1.10;;;18.80;99.90;;;;;;4812573;29;20472;-88
2023/07/10 01:27:53;;;;;;;1.42;1.33;;;18.80;99.90;;;;;;4811170;29;20042;-87
2023/07/10 01:30:27;;;;;;;1.98;1.38;;;18.80;99.90;;;;;;4814888;29;20102;-87
2023/07/10 01:32:55;;;;;;;1.70;1.20;;;18.80;99.90;;;;;;4809129;29;20051;-88
2023/07/10 01:35:23;;;;;;;2.15;1.65;;;18.80;99.90;;;;;;4820267;29;20418;-87
2023/07/10 01:37:49;;;;;;;1.40;1.30;;;18.80;99.90;;;;;;4815833;29;20058;-88
2023/07/10 01:40:19;;;;;;;1.88;1.50;;;18.80;99.90;;;;;;4804363;29;20419;-87
2023/07/10 01:42:45;;;;;;;1.35;1.25;;;18.70;99.90;;;;;;4819663;29;20102;-88
2023/07/10 01:45:13;;;;;;;2.13;1.88;;;18.80;99.90;;;;;;4818931;29;20050;-87
2023/07/10 01:47:39;;;;;;;2.10;1.52;;;18.80;99.90;;;;;;4835760;29;20114;-87
2023/07/10 01:50:05;;;;;;;1.50;1.40;;;18.70;99.90;;;;;;4804889;29;20042;-87
2023/07/10 01:52:30;;;;;;;2.53;1.67;;;18.80;99.90;;;;;;4832305;29;20102;-87
2023/07/10 01:54:56;;;;;;;2.08;1.35;;;18.80;99.90;;;;;;4836611;29;20121;-88
2023/07/10 01:57:23;;;;;;;1.77;1.42;;;18.80;99.90;;;;;;4804863;29;20046;-87
2023/07/10 01:59:52;;;;;;;4.95;2.20;;;18.80;99.90;;;;;;4803063;29;20061;-91
2023/07/10 02:02:18;;;;;;;2.03;1.85;;;18.80;99.90;;;;;;4803520;29;20088;-88
2023/07/10 02:04:44;;;;;;;2.60;1.73;;;18.70;99.90;;;;;;4801951;29;20042;-87
2023/07/10 02:07:10;;;;;;;2.83;1.80;;;18.70;99.90;;;;;;4820099;29;20054;-87
2023/07/10 02:09:35;;;;;;;2.13;1.80;;;18.70;99.90;;;;;;4821290;29;20053;-87
2023/07/10 02:12:02;;;;;;;2.15;1.70;;;18.70;99.90;;;;;;4808755;29;20043;-87
2023/07/10 02:14:28;;;;;;;2.33;1.98;;;18.60;99.90;;;;;;4836804;29;20414;-89
2023/07/10 02:16:54;;;;;;;2.38;1.73;;;18.60;99.90;;;;;;4799579;29;20129;-87
2023/07/10 02:19:20;;;;;;;2.60;2.22;;;18.60;99.90;;;;;;4818393;29;20046;-86
2023/07/10 02:21:47;;;;;;;3.17;2.63;;;18.60;99.90;;;;;;4812282;29;20080;-87
2023/07/10 02:24:13;;;;;;;2.90;2.17;;;18.60;99.90;;;;;;4811505;29;20034;-87
2023/07/10 02:26:38;;;;;;;1.85;1.60;;;18.60;99.90;;;;;;4833382;29;20056;-88
2023/07/10 02:29:04;;;;;;;3.08;2.38;;;18.60;99.90;;;;;;4817484;29;20045;-87
2023/07/10 02:31:30;;;;;;;2.15;1.95;;;18.60;99.90;;;;;;4813068;29;20484;-87
2023/07/10 02:33:56;;;;;;;2.45;2.25;;;18.50;99.90;;;;;;4820634;29;20057;-88
2023/07/10 02:36:23;;;;;;;1.40;1.30;;;18.50;99.90;;;;;;4821385;29;20092;-87
2023/07/10 02:38:49;;;;;;;1.88;1.77;;;18.60;99.90;;;;;;4809579;29;20125;-87
2023/07/10 02:41:15;;;;;;;2.00;1.80;;;18.60;99.90;;;;;;4811557;29;20110;-87
2023/07/10 02:43:41;;;;;;;1.20;1.10;;;18.50;99.90;;;;;;4839346;29;20051;-87
2023/07/10 02:46:06;;;;;;;2.60;1.58;;;18.50;99.90;;;;;;4822936;29;20123;-87
2023/07/10 02:48:32;;;;;;;2.60;1.88;;;18.50;99.90;;;;;;4833376;29;20054;-87
2023/07/10 02:50:58;;;;;;;2.35;1.73;;;18.50;99.90;;;;;;4823954;29;20093;-88
2023/07/10 02:53:24;;;;;;;2.55;2.35;;;18.50;99.90;;;;;;4808803;29;20109;-87
2023/07/10 02:55:49;;;;;;;2.88;2.15;;;18.50;99.90;;;;;;4809008;29;20046;-87
2023/07/10 02:58:15;;;;;;;3.05;1.80;;;18.50;99.90;;;;;;4793384;29;20142;-87
2023/07/10 03:00:41;;;;;;;2.40;1.98;;;18.50;99.90;;;;;;4823870;29;20094;-87
2023/07/10 03:03:07;;;;;;;3.03;2.17;;;18.50;99.90;;;;;;4808585;29;20535;-87
2023/07/10 03:05:33;;;;;;;2.13;1.90;;;18.50;99.90;;;;;;4808599;29;20054;-87
2023/07/10 03:07:58;;;;;;;3.28;2.20;;;18.50;99.90;;;;;;4815393;29;20522;-88
2023/07/10 03:10:25;;;;;;;1.85;1.65;;;18.50;99.90;;;;;;4815596;29;20057;-88
2023/07/10 03:12:53;;;;;;;3.17;2.00;;;18.50;99.90;;;;;;4820158;29;20050;-87
2023/07/10 03:15:19;;;;;;;2.38;2.17;;;18.50;99.90;;;;;;4816380;29;20050;-87
2023/07/10 03:17:45;;;;;;;2.65;2.05;;;18.40;99.90;;;;;;4827219;29;20056;-87
2023/07/10 03:20:11;;;;;;;2.00;1.80;;;18.40;99.90;;;;;;4829227;29;20050;-88
2023/07/10 03:22:37;;;;;;;2.13;2.00;;;18.40;99.90;;;;;;4811423;29;20058;-87
2023/07/10 03:25:03;;;;;;;1.90;1.70;;;18.40;99.90;;;;;;4832993;29;20053;-87
2023/07/10 03:27:29;;;;;;;2.33;1.88;;;18.30;99.90;;;;;;4813723;29;20054;-87
2023/07/10 03:29:55;;;;;;;;;;;18.30;99.90;;;;;;4813536;29;20080;-89
2023/07/10 03:32:21;;;;;;;2.70;1.92;;;18.30;99.90;;;;;;4801750;29;19925;-87
2023/07/10 03:34:49;;;;;;;1.40;1.30;;;18.30;99.90;;;;;;4829282;29;20057;-87
2023/07/10 03:37:15;;;;;;;3.08;2.03;;;18.30;99.90;;;;;;4830450;29;20101;-87
2023/07/10 03:39:41;;;;;;;3.58;1.73;;;18.30;99.90;;;;;;4818840;29;20043;-87
2023/07/10 03:42:07;;;;;;;2.80;2.10;;;18.20;99.90;;;;;;4797368;29;20543;-87
2023/07/10 03:44:32;;;;;;;2.63;2.00;;;18.20;99.90;;;;;;4817158;29;20041;-88
2023/07/10 03:46:58;;;;;;;1.92;1.45;;;18.20;99.90;;;;;;4818126;29;20049;-87
2023/07/10 03:49:25;;;;;;;1.92;1.83;;;18.30;99.90;;;;;;4811191;29;20129;-87
2023/07/10 03:51:50;;;;;;;2.10;1.90;;;18.30;99.90;;;;;;4815709;29;20441;-87
2023/07/10 03:54:17;;;;;;;3.97;1.95;;;18.20;99.90;;;;;;4814002;29;20091;-87
2023/07/10 03:56:43;;;;;;;1.90;1.52;;;18.30;99.90;;;;;;4812226;29;21704;-87
2023/07/10 03:59:09;;;;;;;1.55;1.45;;;18.20;99.90;;;;;;4814515;29;20081;-88
2023/07/10 04:01:35;;;;;;;1.55;1.45;;;18.30;99.90;;;;;;4798754;29;20124;-87
2023/07/10 04:04:01;;;;;;;2.97;1.98;;;18.30;99.90;;;;;;4817843;29;20141;-87
2023/07/10 04:06:27;;;;;;;2.15;1.88;;;18.20;99.90;;;;;;4817578;29;20058;-87
2023/07/10 04:08:52;;;;;;;1.63;1.38;;;18.20;99.90;;;;;;4833147;29;20064;-88
2023/07/10 04:11:22;;;;;;;1.90;1.70;;;18.20;99.90;;;;;;4800023;29;20050;-87
2023/07/10 04:13:50;;;;;;;2.58;1.90;;;18.20;99.90;;;;;;4826238;29;20054;-87
2023/07/10 04:16:18;;;;;;;1.25;1.02;;;18.20;99.90;;;;;;4817008;29;20055;-87
2023/07/10 04:18:45;;;;;;;1.52;1.42;;;18.20;99.90;;;;;;4820595;29;20050;-88
2023/07/10 04:21:19;;;;;;;1.80;1.42;;;18.10;99.90;;;;;;4801474;29;20088;-87
2023/07/10 04:23:45;;;;;;;2.13;1.92;;;18.20;99.90;;;;;;4817112;29;20050;-88
2023/07/10 04:26:20;;;;;;;1.70;1.60;;;18.10;99.90;;;;;;4798350;29;20408;-87
2023/07/10 04:28:48;;;;;;;2.17;1.52;;;18.10;99.90;;;;;;4816255;29;20052;-87
2023/07/10 04:31:15;;;;;;;2.42;2.22;;;18.20;99.90;;;;;;4833682;29;20046;-88
2023/07/10 04:33:41;;;;;;;1.35;1.25;;;18.10;99.90;;;;;;4815084;29;20479;-86
2023/07/10 04:36:08;;;;;;;1.50;1.40;;;18.20;99.90;;;;;;4833779;29;20066;-91
2023/07/10 04:38:35;;;;;;;1.67;1.58;;;18.20;99.90;;;;;;4791921;29;20514;-87
2023/07/10 04:41:03;;;;;;;2.83;1.33;;;18.20;99.90;;;;;;4807550;29;20058;-87
2023/07/10 04:43:33;;;;;;;1.65;1.55;;;18.20;99.90;;;;;;4822141;29;20050;-86
2023/07/10 04:46:02;;;;;;;3.58;1.83;;;18.20;99.90;;;;;;4822544;29;20080;-86
2023/07/10 04:48:28;;;;;;;1.65;1.55;;;18.20;99.90;;;;;;4822157;29;20054;-87
2023/07/10 04:50:55;;;;;;;;;;;18.20;99.90;;;;;;4807458;29;20492;-87
2023/07/10 04:53:23;;;;;;;1.85;1.50;;;18.20;99.90;;;;;;4806957;29;19954;-86
2023/07/10 04:55:50;;;;;;;1.20;1.10;;;18.20;99.90;;;;;;4807214;29;20095;-87
2023/07/10 04:58:16;;;;;;;0.77;0.77;;;17.40;99.90;;;;;;4806908;29;20046;-87
2023/07/10 05:00:43;;;;;;;;;;;18.20;99.90;;;;;;4806973;29;20055;-86
2023/07/10 05:03:09;;;;;;;0.90;0.90;;;18.10;99.90;;;;;;4807396;29;19929;-86
2023/07/10 05:05:35;;;;;;;1.75;1.60;;;18.10;99.90;;;;;;4806371;29;20082;-87
2023/07/10 05:08:02;;;;;;;0.98;0.90;;;18.10;99.90;;;;;;4816118;29;20058;-87
2023/07/10 05:10:28;;;;;;;2.83;2.33;;;18.10;99.90;;;;;;4832893;29;20054;-87
2023/07/10 05:12:54;;;;;;;1.00;0.90;;;18.10;99.90;;;;;;4819432;29;20129;-87
2023/07/10 05:15:20;;;;;;;0.75;0.75;;;18.10;99.90;;;;;;4831439;29;20049;-87
2023/07/10 05:17:47;;;;;;;1.20;1.10;;;18.10;99.90;;;;;;4801094;29;20103;-87
2023/07/10 05:20:13;;;;;;;1.40;1.30;;;18.10;99.90;;;;;;4832231;29;20081;-88
2023/07/10 05:22:41;;;;;;;1.85;1.42;;;18.30;99.90;;;;;;4838665;29;20100;-85
2023/07/10 05:25:08;;;;;;;2.05;1.67;;;18.10;99.90;;;;;;4828913;29;20052;-86
2023/07/10 05:27:34;;;;;;;1.45;1.25;;;18.10;99.90;;;;;;4805212;29;20047;-84
2023/07/10 05:29:59;;;;;;;1.75;1.35;;;18.10;99.90;;;;;;4817376;29;20082;-85
2023/07/10 05:32:25;;;;;;;1.02;0.95;;;18.10;99.90;;;;;;4825949;29;20134;-86
2023/07/10 05:34:51;;;;;;;2.15;1.95;;;18.10;99.90;;;;;;4795614;29;20479;-84
2023/07/10 05:37:16;;;;;;;1.42;1.33;;;18.20;99.90;;;;;;4826357;29;20089;-91
2023/07/10 05:39:42;;;;;;;1.02;0.65;;;18.10;99.90;;;;;;4833594;29;20050;-84
2023/07/10 05:42:08;;;;;;;1.23;1.13;;;18.10;99.90;;;;;;4814660;29;20054;-84
2023/07/10 05:44:34;;;;;;;1.10;0.80;;;18.10;99.90;;;;;;4813062;29;20051;-84
2023/07/10 05:47:00;;;;;;;;;;;18.10;99.90;;;;;;4810216;29;20384;-85
2023/07/10 05:49:25;;;;;;;0.82;0.80;;;18.10;99.90;;;;;;4816909;29;19930;-85
2023/07/10 05:51:52;;;;;;;1.00;0.90;;;18.10;99.90;;;;;;4816191;29;20046;-83
2023/07/10 05:54:21;;;;;;;1.05;1.00;;;18.10;99.90;;;;;;4800815;29;20050;-83
2023/07/10 05:56:47;;;;;;;1.35;1.20;;;18.10;99.90;;;;;;4818381;29;20512;-86
2023/07/10 05:59:14;;;;;;;1.05;0.98;;;18.20;99.90;;;;;;4830631;29;20054;-86
2023/07/10 06:01:40;;;;;;;1.85;1.35;;;18.20;99.90;;;;;;4818085;29;20050;-86
2023/07/10 06:04:06;;;;;;;1.38;1.27;;;18.20;99.90;;;;;;4838353;29;20065;-83
2023/07/10 06:06:31;;;;;;;0.80;0.80;;;18.30;99.90;;;;;;4832234;29;20074;-83
2023/07/10 06:08:57;;;;;;;0.63;0.50;;;18.30;99.90;;;;;;4838226;29;20089;-82
2023/07/10 06:11:23;;;;;;;2.33;1.30;;;18.30;99.90;;;;;;4832492;29;20046;-84
2023/07/10 06:13:49;;;;;;;0.68;0.68;;;18.30;99.90;;;;;;4810630;29;20058;-87
2023/07/10 06:16:15;;;;;;;0.73;0.73;;;18.40;99.90;;;;;;4815018;29;20177;-84
2023/07/10 06:18:41;;;;;;;1.50;0.95;;;18.40;99.90;;;;;;4812902;29;20061;-83
2023/07/10 06:21:08;;;;;;;0.70;0.70;;;18.40;99.90;;;;;;4818302;29;20055;-83
2023/07/10 06:23:34;;;;;;;0.60;0.60;;;18.40;99.90;;;;;;4831558;29;20126;-81
2023/07/10 06:26:00;;;;;;;0.52;0.52;;;18.40;99.90;;;;;;4833712;29;20081;-83
2023/07/10 06:28:28;;;;;;;0.60;0.55;;;18.40;99.90;;;;;;4814355;29;20514;-86
2023/07/10 06:31:06;;;;;;;0.60;0.55;;;18.50;99.90;;;;;;4815007;29;20058;-86
2023/07/10 06:33:32;;;;;;;0.65;0.65;;;18.60;99.90;;;;;;4817016;29;20083;-87
2023/07/10 06:35:59;;;;;;;0.75;0.75;;;18.70;99.90;;;;;;4833305;29;21433;-86
2023/07/10 06:38:24;;;;;;;0.38;0.38;;;18.80;99.90;;;;;;4826922;29;20054;-87
2023/07/10 06:40:51;;;;;;;0.40;0.28;;;18.80;99.90;;;;;;4813496;29;20177;-86
2023/07/10 06:43:18;;;;;;;0.77;0.77;;;18.80;99.90;;;;;;4832714;29;20099;-88
2023/07/10 06:45:44;;;;;;;0.35;0.30;;;18.90;99.90;;;;;;4799865;29;20049;-86
2023/07/10 06:48:11;;;;;;;0.40;0.40;;;19.00;99.90;;;;;;4828295;29;20038;-85
2023/07/10 06:50:36;;;;;;;;;;;18.90;99.90;;;;;;4809773;29;20046;-84
2023/07/10 06:53:03;;;;;;;1.30;0.50;;;18.90;99.90;;;;;;4817494;29;19921;-84
2023/07/10 06:55:29;;;;;;;0.10;0.10;;;18.90;99.90;;;;;;4832147;29;20053;-84
2023/07/10 06:57:55;;;;;;;0.40;0.40;;;18.90;99.90;;;;;;4832120;29;20514;-84
2023/07/10 07:00:20;;;;;;;0.28;0.22;;;18.90;99.90;;;;;;4833171;29;20043;-84
2023/07/10 07:02:47;;;;;;;1.20;0.30;;;18.90;99.90;;;;;;4826012;29;20483;-86
2023/07/10 07:05:13;;;;;;;0.45;0.40;;;19.00;99.90;;;;;;4817358;29;20041;-85
2023/07/10 07:07:40;;;;;;;0.65;0.47;;;19.20;99.90;;;;;;4792373;29;20046;-85
2023/07/10 07:10:08;;;;;;;0.52;0.52;;;19.40;99.90;;;;;;4806518;29;20588;-88
2023/07/10 07:12:34;;;;;;;0.40;0.40;;;19.60;99.90;;;;;;4806813;29;20110;-86
2023/07/10 07:15:00;;;;;;;0.20;0.17;;;19.80;99.90;;;;;;4831424;29;20042;-87
2023/07/10 07:17:26;;;;;;;0.20;0.20;;;20.00;99.90;;;;;;4797440;29;20042;-87
2023/07/10 07:19:51;;;;;;;0.20;0.10;;;20.10;99.90;;;;;;4818088;29;20137;-87
2023/07/10 07:22:17;;;;;;;0.40;0.20;;;20.30;99.90;;;;;;4797458;29;1108420;-87
2023/07/10 07:24:43;;;;;;;0.50;0.50;;;20.40;99.90;;;;;;4830023;29;20114;-87
2023/07/10 07:27:09;;;;;;;0.80;0.52;;;20.50;99.90;;;;;;4833608;29;20522;-87
2023/07/10 07:29:35;;;;;;;0.88;0.52;;;20.70;99.90;;;;;;4816777;29;20432;-86
2023/07/10 07:32:01;;;;;;;0.10;0.10;;;20.80;99.90;;;;;;4801976;29;20046;-86
2023/07/10 07:34:26;;;;;;;0.10;0.10;;;20.90;99.90;;;;;;4817084;29;20046;-87
2023/07/10 07:36:52;;;;;;;0.65;0.55;;;21.00;99.90;;;;;;4819294;29;20130;-86
2023/07/10 07:39:20;;;;;;;0.50;0.50;;;20.60;99.90;;;;;;4837232;29;20113;-87
2023/07/10 07:41:47;;;;;;;0.20;0.20;;;21.10;99.90;;;;;;4799357;29;20113;-87
2023/07/10 07:44:13;;;;;;;0.08;0.08;;;21.10;99.90;;;;;;4833344;29;20047;-88
2023/07/10 07:46:39;;;;;;;0.30;0.30;;;21.20;99.90;;;;;;4813145;29;20046;-87
2023/07/10 07:49:05;;;;;;;0.10;0.10;;;21.30;99.90;;;;;;4801796;29;20071;-88
2023/07/10 07:51:36;;;;;;;0.40;0.35;;;21.50;99.90;;;;;;4819099;29;20046;-93
2023/07/10 07:54:10;;;;;;;0.20;0.20;;;21.40;99.90;;;;;;4829750;29;20053;-86
2023/07/10 07:56:36;;;;;;;0.38;0.20;;;21.40;99.90;;;;;;4827912;29;20564;-86
2023/07/10 07:59:02;;;;;;;0.32;0.10;;;21.50;99.90;;;;;;4803340;29;20061;-89
2023/07/10 08:01:27;;;;;;;0.43;0.20;;;21.50;99.90;;;;;;4831476;29;20418;-85
2023/07/10 08:03:53;;;;;;;0.25;0.25;;;20.90;99.90;;;;;;4814750;29;20056;-86
2023/07/10 08:06:19;;;;;;;0.28;0.28;;;21.60;99.90;;;;;;4831137;29;20121;-85
2023/07/10 08:08:45;;;;;;;0.20;0.20;;;21.50;99.90;;;;;;4814341;29;20487;-84
2023/07/10 08:11:11;;;;;;;0.10;0.10;;;21.60;99.90;;;;;;4816587;29;20053;-85
2023/07/10 08:13:37;;;;;;;0.30;0.30;;;21.60;99.90;;;;;;4830231;29;20094;-86
2023/07/10 08:16:03;;;;;;;0.55;0.20;;;21.70;99.90;;;;;;4813103;29;20050;-87
2023/07/10 08:18:29;;;;;;;0.30;0.20;;;21.70;99.90;;;;;;4810610;29;20491;-87
2023/07/10 08:21:06;;;;;;;0.20;0.15;;;21.60;99.90;;;;;;4806930;29;20069;-87
2023/07/10 08:23:37;;;;;;;0.20;0.20;;;21.60;99.90;;;;;;4807228;29;20500;-86
2023/07/10 08:26:04;;;;;;;0.75;0.30;;;21.70;99.90;;;;;;4823448;29;20054;-86
2023/07/10 08:28:30;;;;;;;0.10;0.10;;;21.70;99.90;;;;;;4807319;29;20050;-86
2023/07/10 08:30:56;;;;;;;0.50;0.40;;;21.90;99.90;;;;;;4792496;29;20050;-87
2023/07/10 08:33:22;;;;;;;0.30;0.30;;;22.00;99.90;;;;;;4807812;29;20141;-87
2023/07/10 08:36:18;;;;;;;0.63;0.30;;;22.10;99.90;;;;;;4806879;29;20104;-87
2023/07/10 08:38:44;;;;;;;0.10;0.10;;;22.10;99.90;;;;;;4807137;29;20059;-87
2023/07/10 08:41:20;;;;;;;0.22;0.22;;;22.00;99.90;;;;;;4807629;29;20061;-87
2023/07/10 08:43:47;;;;;;;0.10;0.10;;;21.90;97.40;;;;;;4824580;29;20061;-87
2023/07/10 08:46:19;;;;;;;0.20;0.20;;;22.00;99.90;;;;;;4796376;29;20065;-86
2023/07/10 08:49:16;;;;;;;0.30;0.30;;;21.90;99.90;;;;;;4811088;29;20061;-87
2023/07/10 08:51:52;;;;;;;0.40;0.40;;;22.00;99.90;;;;;;4810703;29;20141;-87
2023/07/10 08:54:18;;;;;;;0.30;0.28;;;21.90;99.90;;;;;;4810879;29;20054;-87
2023/07/10 08:57:34;;;;;;;0.30;0.20;;;21.90;94.10;;;;;;4825915;29;20062;-86
2023/07/10 09:00:12;;;;;;;0.32;0.30;;;22.00;99.90;;;;;;4818986;29;20451;-86
2023/07/10 09:02:42;;;;;;;0.20;0.20;;;22.00;99.90;;;;;;4811084;29;20100;-83
2023/07/10 09:05:18;;;;;;;0.20;0.20;;;22.00;93.50;;;;;;4822638;29;20054;-90
2023/07/10 09:07:45;;;;;;;0.28;0.25;;;22.00;99.90;;;;;;4828821;29;20081;-93
2023/07/10 09:10:43;;;;;;;0.47;0.40;;;22.10;97.90;;;;;;4807509;29;20136;-95
2023/07/10 09:13:26;;;;;;;1.65;1.30;;;22.00;95.90;;;;;;4820230;29;20054;-86
2023/07/10 09:16:05;;;;;;;;;;;;;;;;;;;;;
2023/07/10 09:18:40;;;;;;;0.10;0.10;;;22.10;99.90;;;;;;4829026;29;20053;-88
2023/07/10 09:21:29;;;;;;;0.40;0.40;;;22.40;97.80;;;;;;4817248;29;20066;-90
2023/07/10 09:24:21;;;;;;;2.05;0.17;;;22.40;99.90;;;;;;4813709;29;20050;-90
2023/07/10 09:27:02;;;;;;;0.38;0.38;;;22.10;99.90;;;;;;4803483;29;20530;-90
2023/07/10 09:32:40;;;;;;;0.05;0.05;;;22.60;93.70;;;;;;4823209;29;20061;-89
2023/07/10 09:35:15;;;;;;;0.20;0.20;;;22.70;92.00;;;;;;4821424;29;20076;-89
2023/07/10 09:37:49;;;;;;;0.70;0.70;;;22.60;99.90;;;;;;4833230;29;20050;-90
2023/07/10 09:40:36;;;;;;;0.30;0.30;;;22.60;98.40;;;;;;4831527;29;20057;-92
2023/07/10 09:43:06;;;;;;;;;;;22.60;97.80;;;;;;4812530;29;20058;-88
2023/07/10 09:45:40;;;;;;;0.15;0.15;;;22.60;99.90;;;;;;4819391;29;19924;-88
2023/07/10 09:48:32;;;;;;;0.75;0.43;;;22.60;91.80;;;;;;4804200;29;20068;-89
2023/07/10 09:51:22;;;;;;;1.13;0.40;;;22.50;93.50;;;;;;4808506;29;20049;-89
2023/07/10 09:56:59;;;;;;;0.25;0.25;;;22.40;99.50;;;;;;4812717;29;20053;-89
2023/07/10 09:59:36;;;;;;;0.08;0.08;;;22.50;99.60;;;;;;4802227;29;20053;-88
2023/07/10 10:02:21;;;;;;;0.25;0.25;;;22.40;95.60;;;;;;4801129;29;20079;-88
2023/07/10 10:05:12;;;;;;;1.10;0.57;;;21.50;99.90;;;;;;4815372;29;20133;-90
2023/07/10 10:08:08;;;;;;;0.10;0.10;;;22.40;98.90;;;;;;4799250;29;20776;-88
2023/07/10 10:10:37;;;;;;;0.20;0.20;;;22.30;91.30;;;;;;4829557;29;20104;-91
2023/07/10 10:13:35;;;;;;;0.40;0.40;;;21.40;95.30;;;;;;4831675;29;20082;-94
2023/07/10 10:16:23;;;;;;;0.10;0.10;;;22.60;99.90;;;;;;4837246;29;20128;-93
2023/07/10 10:19:03;;;;;;;0.25;0.20;;;22.60;81.70;;;;;;4818475;29;20141;-93
2023/07/10 10:21:39;;;;;;;0.13;0.13;;;22.70;99.90;;;;;;4815584;29;20562;-92
2023/07/10 10:24:22;;;;;;;0.28;0.28;;;22.90;91.00;;;;;;4818681;29;20163;-91
2023/07/10 10:26:54;;;;;;;0.28;0.28;;;22.80;99.90;;;;;;4830628;29;20054;-91
2023/07/10 10:29:40;;;;;;;0.70;0.50;;;23.20;93.00;;;;;;4810579;29;20385;-90
2023/07/10 10:32:45;;;;;;;0.77;0.40;;;22.60;99.90;;;;;;4830964;29;20133;-91
2023/07/10 10:35:39;;;;;;;0.20;0.20;;;23.40;99.90;;;;;;4814809;29;20495;-91
2023/07/10 10:38:35;;;;;;;0.13;0.13;;;23.40;99.90;;;;;;4829661;29;20041;-87
2023/07/10 10:41:31;;;;;;;0.45;0.30;;;23.40;99.90;;;;;;4812378;29;20511;-92
2023/07/10 10:44:26;;;;;;;0.15;0.15;;;23.30;99.90;;;;;;4830193;29;20046;-86
2023/07/10 10:47:23;;;;;;;0.10;0.10;;;23.40;99.90;;;;;;4831393;29;20519;-90
2023/07/10 10:50:09;;;;;;;0.73;0.73;;;23.40;99.90;;;;;;4819215;29;20050;-89
2023/07/10 10:53:12;;;;;;;0.10;0.10;;;23.50;99.90;;;;;;4817818;29;20077;-88
2023/07/10 10:55:57;;;;;;;0.10;0.10;;;23.60;99.90;;;;;;4814739;29;20054;-88
2023/07/10 10:58:39;;;;;;;0.60;0.50;;;23.70;1.00;;;;;;4829482;29;20499;-88
2023/07/10 11:01:13;;;;;;;1.30;1.10;;;23.80;1.00;;;;;;4829209;29;20046;-88
2023/07/10 11:03:51;;;;;;;0.20;0.20;;;23.00;61.00;;;;;;4819348;29;20117;-88
2023/07/10 11:06:28;;;;;;;0.20;0.20;;;23.90;1.00;;;;;;4814162;29;20061;-88
2023/07/10 11:09:07;;;;;;;0.20;0.20;;;24.00;19.20;;;;;;4817109;29;20046;-88
2023/07/10 11:11:46;;;;;;;0.60;0.60;;;24.00;31.60;;;;;;4813489;29;20487;-88
2023/07/10 11:14:25;;;;;;;;;;;;;;;;;;;;;
2023/07/10 11:17:02;;;;;;;0.73;0.52;;;23.70;1.00;;;;;;4817911;29;20106;-88
2023/07/10 11:19:28;;;;;;;;;;;24.20;44.80;;;;;;4831215;29;20132;-89
2023/07/10 11:22:31;;;;;;;;;;;;;;;;;;;;;
2023/07/10 11:25:02;;;;;;;0.45;0.20;;;24.10;1.00;;;;;;4828094;29;20046;-88
2023/07/10 11:27:31;;;;;;;0.20;0.20;;;24.10;43.90;;;;;;4831807;29;20058;-88
2023/07/10 11:30:14;;;;;;;2.08;0.40;;;23.20;28.60;;;;;;4828011;29;20095;-92
2023/07/10 11:33:20;;;;;;;0.65;0.50;;;23.10;31.70;;;;;;4830005;29;20064;-88
2023/07/10 11:36:09;;;;;;;;;;;24.30;99.90;;;;;;4779240;29;20062;-89
2023/07/10 11:38:41;;;;;;;0.10;0.10;;;24.30;99.90;;;;;;4779797;29;19936;-88
2023/07/10 11:41:27;;;;;;;0.38;0.20;;;24.20;1.00;;;;;;4811621;29;20053;-88
2023/07/10 11:44:16;;;;;;;0.08;0.08;;;24.20;99.90;;;;;;4826518;29;20068;-89
2023/07/10 11:47:03;;;;;;;0.20;0.20;;;24.20;99.90;;;;;;4815645;29;20062;-88
2023/07/10 11:50:05;;;;;;;0.10;0.00;;;24.30;99.90;;;;;;4815756;29;20093;-88
2023/07/10 11:52:35;;;;;;;0.32;0.10;;;24.40;1.00;;;;;;4830357;29;20110;-88
2023/07/10 11:55:13;;;;;;;0.47;0.47;;;24.40;1.00;;;;;;4813374;29;20502;-89
2023/07/10 11:58:34;;;;;;;0.35;0.13;;;24.50;1.00;;;;;;4828647;29;20050;-88
2023/07/10 12:01:18;;;;;;;0.20;0.20;;;24.60;99.90;;;;;;4787041;29;20133;-93
2023/07/10 12:03:44;;;;;;;0.30;0.30;;;24.60;1.00;;;;;;4798611;29;20049;-87
2023/07/10 12:06:14;;;;;;;;;;;24.60;1.00;;;;;;4803619;29;20050;-87
2023/07/10 12:08:40;;;;;;;0.15;0.13;;;24.60;99.90;;;;;;4802682;29;20317;-87
2023/07/10 12:11:33;;;;;;;0.20;0.20;;;24.70;1.00;;;;;;4804530;29;20137;-88
2023/07/10 12:14:08;;;;;;;0.28;0.20;;;24.70;1.00;;;;;;4833522;29;20054;-87
2023/07/10 12:16:43;;;;;;;0.43;0.25;;;24.80;1.00;;;;;;4818122;29;20061;-87
2023/07/10 12:19:18;;;;;;;0.10;0.10;;;24.80;99.90;;;;;;4819071;29;20057;-87
2023/07/10 12:21:44;;;;;;;0.30;0.30;;;24.80;1.00;;;;;;4818100;29;20054;-87
2023/07/10 12:24:15;;;;;;;0.28;0.20;;;24.70;1.00;;;;;;4816117;29;20060;-87
2023/07/10 12:26:42;;;;;;;0.10;0.10;;;24.50;1.00;;;;;;4816380;29;20428;-88
2023/07/10 12:29:13;;;;;;;0.35;0.30;;;24.40;1.00;;;;;;4802093;29;20046;-87
2023/07/10 12:31:40;;;;;;;0.20;0.20;;;24.30;1.00;;;;;;4814356;29;20057;-86
2023/07/10 12:34:13;;;;;;;0.35;0.30;;;24.10;1.00;;;;;;4799464;29;20499;-89
2023/07/10 12:36:39;;;;;;;0.22;0.22;;;23.10;1.00;;;;;;4817252;29;20105;-88
2023/07/10 12:39:07;;;;;;;;;;;23.70;1.00;;;;;;4815285;29;20049;-86
2023/07/10 12:41:40;;;;;;;0.60;0.60;;;22.70;43.00;;;;;;4817797;29;19924;-85
2023/07/10 12:44:06;;;;;;;0.30;0.30;;;23.60;1.00;;;;;;4830705;29;20117;-87
2023/07/10 12:46:33;;;;;;;0.32;0.30;;;23.80;1.00;;;;;;4816952;29;20471;-86
2023/07/10 12:49:15;;;;;;;0.93;0.20;;;23.90;1.00;;;;;;4817862;29;20579;-85
2023/07/10 12:51:48;;;;;;;0.00;0.00;;;24.10;99.90;;;;;;4796304;29;20042;-86
2023/07/10 12:54:47;;;;;;;0.15;0.15;;;24.30;99.90;;;;;;4809560;29;20049;-86
2023/07/10 12:57:20;;;;;;;0.20;0.15;;;24.40;1.00;;;;;;4807209;29;20042;-86
2023/07/10 12:59:54;;;;;;;0.10;0.10;;;24.50;1.00;;;;;;4808604;29;20065;-85
2023/07/10 13:02:26;;;;;;;0.20;0.20;;;24.50;1.00;;;;;;4825962;29;20054;-88
2023/07/10 13:05:13;;;;;;;0.15;0.10;;;24.70;99.90;;;;;;4819174;29;20049;-91
2023/07/10 13:07:45;;;;;;;;;;;24.70;99.90;;;;;;4816539;29;20050;-93
2023/07/10 13:10:52;;;;;;;0.10;0.10;;;24.70;99.90;;;;;;4823637;29;19924;-93
2023/07/10 13:14:14;;;;;;;;;;;;;;;;;;;;;
2023/07/10 13:25:09;;;;;;;;;;;;;;;;;;;;;
2023/07/10 13:32:02;;;;;;;;;;;;;;;;;;;;;
2023/07/10 13:39:22;;;;;;;;;;;;;;;;;;;;;
2023/07/10 13:42:15;;;;;;;;;;;;;;;;;;;;;
2023/07/10 13:45:46;;;;;;;;;;;;;;;;;;;;;
2023/07/10 13:48:48;;;;;;;0.10;0.10;;;25.00;99.90;;;;;;4689271;30;20190;-94
2023/07/10 13:52:23;;;;;;;;;;;;;;;;;;;;;